Time;durP1;ratioP1;P1;durP2;ratioP2;P2;SDS_P1;SDS_P2;PMS_P1;PMS_P2;Temp;Humidity;BMP_temperature;BMP_pressure;BME280_temperature;BME280_humidity;BME280_pressure;Samples;Min_cycle;Max_cycle;Signal;HPM_P1;HPM_P2
2021/07/26 00:00:12;;;;;;;8.20;6.65;;;20.20;99.90;;;;;;5074812;28;20820;-66
2021/07/26 00:02:40;;;;;;;9.45;6.90;;;20.20;99.90;;;;;;5075191;28;20204;-66
2021/07/26 00:05:10;;;;;;;8.23;6.72;;;20.10;99.90;;;;;;5075304;28;20201;-65
2021/07/26 00:07:38;;;;;;;7.53;6.57;;;20.20;99.90;;;;;;5074730;28;20572;-67
2021/07/26 00:10:08;;;;;;;8.10;7.32;;;20.10;99.90;;;;;;5075011;28;20203;-67
2021/07/26 00:12:37;;;;;;;8.60;7.40;;;20.20;99.90;;;;;;5074823;28;20287;-66
2021/07/26 00:15:07;;;;;;;7.70;7.00;;;20.20;99.90;;;;;;5074567;28;20303;-65
2021/07/26 00:17:35;;;;;;;7.88;7.10;;;20.20;99.90;;;;;;5074367;28;20790;-66
2021/07/26 00:20:04;;;;;;;7.57;6.60;;;20.30;99.90;;;;;;5074761;28;20291;-66
2021/07/26 00:22:32;;;;;;;10.52;6.82;;;20.40;99.90;;;;;;5073966;28;20827;-66
2021/07/26 00:25:00;;;;;;;7.43;6.05;;;20.40;99.90;;;;;;5074228;28;20221;-66
2021/07/26 00:27:29;;;;;;;9.23;6.38;;;20.40;99.90;;;;;;5074334;28;20205;-67
2021/07/26 00:29:57;;;;;;;7.18;6.47;;;20.40;99.90;;;;;;5074156;28;20197;-66
2021/07/26 00:32:28;;;;;;;7.63;6.38;;;20.30;99.90;;;;;;5074383;28;20209;-66
2021/07/26 00:34:56;;;;;;;7.07;6.13;;;20.40;99.90;;;;;;5074519;28;20269;-67
2021/07/26 00:37:26;;;;;;;7.35;6.55;;;20.40;99.90;;;;;;5073956;28;20295;-66
2021/07/26 00:39:54;;;;;;;7.43;5.75;;;20.30;99.90;;;;;;5073819;28;20640;-66
2021/07/26 00:42:22;;;;;;;6.72;6.00;;;20.30;99.90;;;;;;5074406;28;20287;-66
2021/07/26 00:44:52;;;;;;;8.93;6.20;;;20.20;99.90;;;;;;5073595;28;20237;-66
2021/07/26 00:47:20;;;;;;;6.95;6.07;;;20.20;99.90;;;;;;5074244;28;20275;-66
2021/07/26 00:49:47;;;;;;;9.15;6.32;;;20.10;99.90;;;;;;5074465;28;20291;-66
2021/07/26 00:52:16;;;;;;;8.98;6.18;;;20.10;99.90;;;;;;5073231;28;20209;-66
2021/07/26 00:54:43;;;;;;;9.88;6.20;;;20.10;99.90;;;;;;5073431;28;20296;-67
2021/07/26 00:57:12;;;;;;;6.97;5.78;;;20.00;99.90;;;;;;5073569;28;20291;-65
2021/07/26 00:59:40;;;;;;;7.68;5.72;;;20.00;99.90;;;;;;5073843;28;20295;-66
2021/07/26 01:02:09;;;;;;;6.30;5.68;;;20.00;99.90;;;;;;5073569;28;20323;-66
2021/07/26 01:04:38;;;;;;;6.68;5.75;;;20.00;99.90;;;;;;5073777;28;20240;-66
2021/07/26 01:07:06;;;;;;;6.60;5.80;;;19.90;99.90;;;;;;5073395;28;20291;-66
2021/07/26 01:09:34;;;;;;;9.02;6.30;;;19.80;99.90;;;;;;5073304;28;20759;-65
2021/07/26 01:12:02;;;;;;;7.75;6.25;;;19.80;99.90;;;;;;5073179;28;20645;-66
2021/07/26 01:14:31;;;;;;;6.45;5.85;;;19.80;99.90;;;;;;5073234;28;20203;-66
2021/07/26 01:16:59;;;;;;;7.25;6.20;;;19.80;99.90;;;;;;5073457;28;20279;-66
2021/07/26 01:19:28;;;;;;;7.82;6.03;;;19.80;99.90;;;;;;5072991;28;20205;-66
2021/07/26 01:21:58;;;;;;;6.65;5.97;;;19.70;99.90;;;;;;5073013;28;20627;-66
2021/07/26 01:24:26;;;;;;;7.70;6.35;;;19.70;99.90;;;;;;5072978;28;20220;-65
2021/07/26 01:26:53;;;;;;;8.55;6.00;;;19.60;99.90;;;;;;5073202;28;20207;-65
2021/07/26 01:29:22;;;;;;;8.35;6.00;;;19.70;99.90;;;;;;5072751;28;20204;-66
2021/07/26 01:31:50;;;;;;;7.38;6.60;;;19.70;99.90;;;;;;5072990;28;20618;-66
2021/07/26 01:34:18;;;;;;;7.82;6.43;;;19.70;99.90;;;;;;5072604;28;20545;-66
2021/07/26 01:36:46;;;;;;;6.90;5.63;;;19.70;99.90;;;;;;5072727;28;20238;-65
2021/07/26 01:39:15;;;;;;;7.97;6.60;;;19.60;99.90;;;;;;5072574;28;20296;-65
2021/07/26 01:41:43;;;;;;;8.73;6.43;;;19.60;99.90;;;;;;5072799;28;20292;-66
2021/07/26 01:44:12;;;;;;;7.72;6.13;;;19.60;99.90;;;;;;5072347;28;20224;-65
2021/07/26 01:47:05;;;;;;;7.80;6.32;;;19.60;99.90;;;;;;5072812;28;20261;-65
2021/07/26 01:49:44;;;;;;;8.18;6.75;;;19.60;99.90;;;;;;5063905;28;20201;-66
2021/07/26 01:52:13;;;;;;;7.13;6.45;;;19.50;99.90;;;;;;5072606;28;20200;-66
2021/07/26 01:54:42;;;;;;;7.10;6.43;;;19.50;99.90;;;;;;5071944;28;20200;-66
2021/07/26 01:57:10;;;;;;;7.68;6.97;;;19.40;99.90;;;;;;5072830;28;20232;-64
2021/07/26 01:59:38;;;;;;;7.72;6.55;;;19.40;99.90;;;;;;5072398;28;20300;-65
2021/07/26 02:02:06;;;;;;;9.05;6.80;;;19.40;99.90;;;;;;5072258;28;20212;-66
2021/07/26 02:04:34;;;;;;;7.32;6.63;;;19.40;99.90;;;;;;5072547;28;20587;-65
2021/07/26 02:07:02;;;;;;;7.50;6.75;;;19.40;99.90;;;;;;5072401;28;20240;-65
2021/07/26 02:09:30;;;;;;;7.45;6.70;;;19.40;99.90;;;;;;5072083;28;20559;-65
2021/07/26 02:11:59;;;;;;;8.23;6.90;;;19.40;99.90;;;;;;5072619;28;20203;-65
2021/07/26 02:14:27;;;;;;;8.50;6.53;;;19.30;99.90;;;;;;5072221;28;20203;-65
2021/07/26 02:16:55;;;;;;;8.82;6.65;;;19.40;99.90;;;;;;5072429;28;20209;-66
2021/07/26 02:19:23;;;;;;;7.70;6.90;;;19.40;99.90;;;;;;5072252;28;20203;-66
2021/07/26 02:21:51;;;;;;;8.50;6.93;;;19.30;99.90;;;;;;5071800;28;20303;-65
2021/07/26 02:24:19;;;;;;;7.10;6.40;;;19.30;99.90;;;;;;5072154;28;20315;-66
2021/07/26 02:26:47;;;;;;;8.30;6.90;;;19.30;99.90;;;;;;5072207;28;20205;-66
2021/07/26 02:29:16;;;;;;;7.70;6.90;;;19.30;99.90;;;;;;5072049;28;20200;-66
2021/07/26 02:31:44;;;;;;;7.90;6.60;;;19.30;99.90;;;;;;5072252;28;20206;-66
2021/07/26 02:34:12;;;;;;;7.70;7.00;;;19.20;99.90;;;;;;5072255;28;20216;-65
2021/07/26 02:36:40;;;;;;;8.13;7.30;;;19.20;99.90;;;;;;5071684;28;20679;-65
2021/07/26 02:39:08;;;;;;;8.23;7.43;;;19.20;99.90;;;;;;5072061;28;20200;-66
2021/07/26 02:41:36;;;;;;;8.10;7.30;;;19.20;99.90;;;;;;5072041;28;20292;-66
2021/07/26 02:44:04;;;;;;;7.45;6.75;;;19.20;99.90;;;;;;5071586;28;20229;-66
2021/07/26 02:46:33;;;;;;;10.13;7.20;;;19.20;99.90;;;;;;5072365;28;20207;-66
2021/07/26 02:49:01;;;;;;;8.68;7.25;;;19.30;99.90;;;;;;5071793;28;20235;-66
2021/07/26 02:51:29;;;;;;;8.88;7.30;;;19.30;99.90;;;;;;5071939;28;20196;-65
2021/07/26 02:53:57;;;;;;;7.97;7.18;;;19.30;99.90;;;;;;5071814;28;20651;-65
2021/07/26 02:56:25;;;;;;;12.55;7.18;;;19.40;99.90;;;;;;5071917;28;20200;-67
2021/07/26 02:58:53;;;;;;;9.95;7.22;;;19.40;99.90;;;;;;5071643;28;20574;-66
2021/07/26 03:01:21;;;;;;;8.52;7.05;;;19.50;99.90;;;;;;5072162;28;20287;-66
2021/07/26 03:03:51;;;;;;;8.25;6.82;;;19.50;99.90;;;;;;5072018;28;20211;-66
2021/07/26 03:06:21;;;;;;;8.23;7.30;;;19.50;99.90;;;;;;5071639;28;20680;-69
2021/07/26 03:08:49;;;;;;;7.55;6.80;;;19.40;99.90;;;;;;5074907;28;20234;-66
2021/07/26 03:11:17;;;;;;;10.50;7.15;;;19.40;99.90;;;;;;5074713;28;20244;-65
2021/07/26 03:13:45;;;;;;;8.55;7.43;;;19.40;99.90;;;;;;5073333;28;20239;-66
2021/07/26 03:16:15;;;;;;;10.85;8.18;;;19.40;99.90;;;;;;5072733;28;20197;-66
2021/07/26 03:18:43;;;;;;;8.95;7.85;;;19.40;99.90;;;;;;5075648;28;20196;-66
2021/07/26 03:21:16;;;;;;;8.10;7.28;;;19.30;99.90;;;;;;5075150;28;20657;-65
2021/07/26 03:23:44;;;;;;;9.43;7.60;;;19.30;99.90;;;;;;5075509;28;20272;-66
2021/07/26 03:26:12;;;;;;;10.57;7.43;;;19.30;99.90;;;;;;5075259;28;20307;-66
2021/07/26 03:28:40;;;;;;;9.82;8.15;;;19.30;99.90;;;;;;5074917;28;20228;-66
2021/07/26 03:31:08;;;;;;;9.75;7.45;;;19.30;99.90;;;;;;5075321;28;20196;-67
2021/07/26 03:33:36;;;;;;;9.15;8.15;;;19.40;99.90;;;;;;5075053;28;20287;-66
2021/07/26 03:36:04;;;;;;;10.93;7.80;;;19.30;99.90;;;;;;5075119;28;20193;-67
2021/07/26 03:38:33;;;;;;;9.10;7.30;;;19.30;99.90;;;;;;5075075;28;20291;-66
2021/07/26 03:41:01;;;;;;;10.63;8.52;;;19.30;99.90;;;;;;5075110;28;20200;-66
2021/07/26 03:43:30;;;;;;;8.23;7.22;;;19.30;99.90;;;;;;5074709;28;20599;-66
2021/07/26 03:45:58;;;;;;;14.65;7.72;;;19.30;99.90;;;;;;5074653;28;20756;-66
2021/07/26 03:48:26;;;;;;;9.25;8.02;;;19.30;99.90;;;;;;5074902;28;20200;-66
2021/07/26 03:50:53;;;;;;;8.63;7.10;;;19.30;99.90;;;;;;5074984;28;20204;-66
2021/07/26 03:53:21;;;;;;;10.30;7.90;;;19.30;99.90;;;;;;5074660;28;20238;-65
2021/07/26 03:55:50;;;;;;;10.15;7.57;;;19.30;99.90;;;;;;5074863;28;20193;-66
2021/07/26 03:58:18;;;;;;;11.60;7.80;;;19.40;99.90;;;;;;5074680;28;20201;-67
2021/07/26 04:00:46;;;;;;;10.25;7.65;;;19.40;99.90;;;;;;5074895;28;20209;-66
2021/07/26 04:03:20;;;;;;;9.70;7.65;;;19.40;99.90;;;;;;5074846;28;20201;-65
2021/07/26 04:05:52;;;;;;;11.40;8.20;;;19.40;99.90;;;;;;5074333;28;20214;-66
2021/07/26 04:08:22;;;;;;;12.02;8.13;;;19.50;99.90;;;;;;5074550;28;20185;-66
2021/07/26 04:10:59;;;;;;;12.10;8.07;;;19.50;99.90;;;;;;5074634;28;20185;-66
2021/07/26 04:13:27;;;;;;;8.80;7.90;;;19.60;99.90;;;;;;5074400;28;20181;-66
2021/07/26 04:15:55;;;;;;;10.98;8.23;;;19.70;99.90;;;;;;5074191;28;20228;-67
2021/07/26 04:18:25;;;;;;;10.20;7.95;;;19.70;99.90;;;;;;5074251;28;20663;-66
2021/07/26 04:20:53;;;;;;;10.82;7.78;;;19.80;99.90;;;;;;5074406;28;20274;-66
2021/07/26 04:23:21;;;;;;;10.38;7.70;;;19.90;99.90;;;;;;5073939;28;20623;-67
2021/07/26 04:25:50;;;;;;;10.35;7.35;;;20.10;99.90;;;;;;5074254;28;20223;-66
2021/07/26 04:28:20;;;;;;;15.60;7.63;;;20.20;99.90;;;;;;5072669;28;20300;-66
2021/07/26 04:30:47;;;;;;;9.95;7.07;;;20.30;99.90;;;;;;5074061;28;20294;-66
2021/07/26 04:33:15;;;;;;;12.00;7.70;;;20.30;99.90;;;;;;5074109;28;20201;-66
2021/07/26 04:35:43;;;;;;;10.05;7.50;;;20.40;99.90;;;;;;5073801;28;20724;-66
2021/07/26 04:38:11;;;;;;;10.55;7.80;;;20.50;99.90;;;;;;5074145;28;20210;-66
2021/07/26 04:40:39;;;;;;;13.63;7.88;;;20.60;99.90;;;;;;5073689;28;20676;-68
2021/07/26 04:43:06;;;;;;;10.65;7.85;;;20.70;99.90;;;;;;5073677;28;20661;-65
2021/07/26 04:45:35;;;;;;;9.05;7.13;;;20.80;99.90;;;;;;5074078;28;20296;-67
2021/07/26 04:48:04;;;;;;;7.70;6.90;;;20.90;99.90;;;;;;5073629;28;20291;-66
2021/07/26 04:50:32;;;;;;;11.20;7.30;;;21.00;99.90;;;;;;5073891;28;20219;-66
2021/07/26 04:53:00;;;;;;;9.80;7.50;;;21.20;99.90;;;;;;5073542;28;20211;-68
2021/07/26 04:55:28;;;;;;;10.52;7.57;;;21.30;99.90;;;;;;5073669;28;20298;-66
2021/07/26 04:57:55;;;;;;;9.90;6.30;;;21.50;99.90;;;;;;5073503;28;20207;-65
2021/07/26 05:00:26;;;;;;;11.25;6.60;;;21.80;99.90;;;;;;5072664;28;20295;-67
2021/07/26 05:02:55;;;;;;;7.85;6.15;;;22.00;99.90;;;;;;5073372;28;20220;-65
2021/07/26 05:05:24;;;;;;;7.90;5.80;;;22.20;99.90;;;;;;5073242;28;20204;-66
2021/07/26 05:07:51;;;;;;;10.25;6.10;;;22.70;99.90;;;;;;5057610;28;20383;-67
2021/07/26 05:10:19;;;;;;;13.57;6.03;;;23.80;99.90;;;;;;5053370;28;20225;-66
2021/07/26 05:12:47;;;;;;;12.65;5.88;;;24.50;99.90;;;;;;5053312;28;20205;-66
2021/07/26 05:15:15;;;;;;;10.43;5.40;;;24.70;99.90;;;;;;5053125;28;20204;-66
2021/07/26 05:17:42;;;;;;;7.55;5.40;;;24.40;99.90;;;;;;5053210;28;20205;-66
2021/07/26 05:20:12;;;;;;;8.20;5.05;;;24.00;99.90;;;;;;5053444;28;20224;-67
2021/07/26 05:22:40;;;;;;;8.50;5.15;;;23.50;99.90;;;;;;5053238;28;20285;-66
2021/07/26 05:25:09;;;;;;;10.20;5.82;;;23.20;99.90;;;;;;5053492;28;20309;-66
2021/07/26 05:27:38;;;;;;;8.13;5.30;;;22.70;99.90;;;;;;5053021;28;20231;-66
2021/07/26 05:30:08;;;;;;;10.65;5.85;;;22.50;99.90;;;;;;5053065;28;20213;-67
2021/07/26 05:32:36;;;;;;;7.38;5.35;;;22.30;99.90;;;;;;5052624;28;20237;-66
2021/07/26 05:35:04;;;;;;;8.18;5.05;;;22.20;99.90;;;;;;5053016;28;20208;-66
2021/07/26 05:37:34;;;;;;;8.52;5.75;;;22.20;99.90;;;;;;5052511;28;20622;-67
2021/07/26 05:40:02;;;;;;;8.10;5.18;;;22.10;99.90;;;;;;5052580;28;20209;-66
2021/07/26 05:42:30;;;;;;;8.75;5.57;;;22.20;99.90;;;;;;5052497;28;20677;-65
2021/07/26 05:44:58;;;;;;;7.57;5.35;;;22.40;99.90;;;;;;5052186;28;20265;-66
2021/07/26 05:47:26;;;;;;;9.07;5.75;;;22.50;99.90;;;;;;5052323;28;20231;-66
2021/07/26 05:49:53;;;;;;;7.35;5.70;;;22.70;99.90;;;;;;5052153;28;20205;-65
2021/07/26 05:52:21;;;;;;;12.05;5.88;;;22.70;99.90;;;;;;5061592;28;20204;-66
2021/07/26 05:54:51;;;;;;;8.88;5.05;;;22.60;99.90;;;;;;5072933;28;20235;-66
2021/07/26 05:57:20;;;;;;;6.75;4.75;;;22.40;99.90;;;;;;5073259;28;20199;-66
2021/07/26 05:59:52;;;;;;;8.30;4.95;;;22.50;99.90;;;;;;5072560;28;20200;-65
2021/07/26 06:02:19;;;;;;;6.75;5.07;;;22.60;99.90;;;;;;5072182;28;20195;-66
2021/07/26 06:04:48;;;;;;;6.28;4.93;;;22.70;99.90;;;;;;5072313;28;20246;-65
2021/07/26 06:07:17;;;;;;;7.80;5.00;;;23.00;99.90;;;;;;5072365;28;20223;-66
2021/07/26 06:09:46;;;;;;;8.10;4.55;;;23.10;99.90;;;;;;5072369;28;20197;-66
2021/07/26 06:12:15;;;;;;;8.18;5.03;;;23.30;99.90;;;;;;5072291;28;20197;-65
2021/07/26 06:14:43;;;;;;;9.55;4.78;;;23.40;99.90;;;;;;5072137;28;20295;-68
2021/07/26 06:17:12;;;;;;;5.85;5.25;;;23.40;99.90;;;;;;5072372;28;20233;-67
2021/07/26 06:19:39;;;;;;;8.38;5.30;;;23.40;99.90;;;;;;5072235;28;20291;-65
2021/07/26 06:22:07;;;;;;;8.45;5.43;;;23.50;99.90;;;;;;5072193;28;20208;-65
2021/07/26 06:24:35;;;;;;;10.73;5.18;;;23.60;99.90;;;;;;5071898;28;20755;-66
2021/07/26 06:27:03;;;;;;;5.55;4.97;;;23.60;99.90;;;;;;5072097;28;20304;-65
2021/07/26 06:29:32;;;;;;;6.88;4.70;;;23.60;99.90;;;;;;5071871;28;20280;-66
2021/07/26 06:32:00;;;;;;;6.45;4.80;;;23.70;99.90;;;;;;5072072;28;20212;-66
2021/07/26 06:34:28;;;;;;;5.82;4.20;;;23.70;99.90;;;;;;5071626;28;20300;-66
2021/07/26 06:36:56;;;;;;;7.70;4.53;;;23.80;99.90;;;;;;5071840;28;20601;-65
2021/07/26 06:39:24;;;;;;;6.57;4.60;;;23.90;99.90;;;;;;5071856;28;20292;-66
2021/07/26 06:41:52;;;;;;;6.75;4.50;;;24.00;99.90;;;;;;5072071;28;20232;-66
2021/07/26 06:44:20;;;;;;;5.65;4.10;;;24.10;99.90;;;;;;5071710;28;20323;-66
2021/07/26 06:46:50;;;;;;;5.45;4.05;;;24.10;99.90;;;;;;5072471;28;20220;-67
2021/07/26 06:49:18;;;;;;;6.78;4.35;;;24.20;99.90;;;;;;5071916;28;20211;-65
2021/07/26 06:51:45;;;;;;;4.78;3.95;;;24.30;99.90;;;;;;5074504;28;20205;-66
2021/07/26 06:54:13;;;;;;;5.13;3.65;;;24.30;99.90;;;;;;5076263;28;20196;-66
2021/07/26 06:56:41;;;;;;;4.70;4.03;;;24.30;99.90;;;;;;5076116;28;20702;-67
2021/07/26 06:59:09;;;;;;;5.78;3.72;;;24.30;99.90;;;;;;5075818;28;20731;-65
2021/07/26 07:01:37;;;;;;;5.95;3.97;;;24.30;99.90;;;;;;5075899;28;20334;-66
2021/07/26 07:04:06;;;;;;;5.07;3.83;;;24.40;99.90;;;;;;5075821;28;20645;-65
2021/07/26 07:06:34;;;;;;;6.75;3.63;;;24.30;99.90;;;;;;5075735;28;20598;-66
2021/07/26 07:09:02;;;;;;;4.05;3.75;;;24.30;99.90;;;;;;5076123;28;20250;-66
2021/07/26 07:11:30;;;;;;;5.97;3.92;;;24.40;99.90;;;;;;5075904;28;20204;-68
2021/07/26 07:13:59;;;;;;;5.93;4.60;;;24.40;99.90;;;;;;5075552;28;20203;-67
2021/07/26 07:16:27;;;;;;;4.75;4.30;;;24.50;99.90;;;;;;5075572;28;20201;-67
2021/07/26 07:18:56;;;;;;;6.15;4.43;;;24.60;99.90;;;;;;5075691;28;20208;-65
2021/07/26 07:21:26;;;;;;;6.70;4.40;;;24.60;99.90;;;;;;5075590;28;20224;-67
2021/07/26 07:23:56;;;;;;;4.78;4.38;;;24.70;99.90;;;;;;5075501;28;20220;-66
2021/07/26 07:26:24;;;;;;;5.15;4.65;;;24.70;99.90;;;;;;5075538;28;20262;-66
2021/07/26 07:28:53;;;;;;;5.90;4.63;;;24.70;99.90;;;;;;5075057;28;20311;-65
2021/07/26 07:31:24;;;;;;;5.05;4.50;;;24.80;99.90;;;;;;5075335;28;20299;-66
2021/07/26 07:33:52;;;;;;;6.28;5.03;;;24.80;99.90;;;;;;5075297;28;20284;-66
2021/07/26 07:36:21;;;;;;;6.82;4.45;;;24.80;99.90;;;;;;5075219;28;20224;-67
2021/07/26 07:38:50;;;;;;;6.28;5.15;;;24.80;99.90;;;;;;5075167;28;20295;-67
2021/07/26 07:41:19;;;;;;;6.63;4.90;;;24.80;99.90;;;;;;5074813;28;20297;-65
2021/07/26 07:43:47;;;;;;;6.53;4.75;;;24.90;99.90;;;;;;5074494;28;20240;-67
2021/07/26 07:46:17;;;;;;;6.00;5.07;;;24.90;99.90;;;;;;5075108;28;20207;-66
2021/07/26 07:48:45;;;;;;;5.75;4.55;;;24.80;99.90;;;;;;5074848;28;20216;-66
2021/07/26 07:51:13;;;;;;;5.97;4.38;;;24.80;99.90;;;;;;5074680;28;20243;-67
2021/07/26 07:53:41;;;;;;;5.30;4.68;;;24.80;99.90;;;;;;5074778;28;20391;-66
2021/07/26 07:56:10;;;;;;;7.68;4.63;;;24.90;99.90;;;;;;5074908;28;20288;-65
2021/07/26 07:58:38;;;;;;;5.13;3.92;;;24.70;99.90;;;;;;5074732;28;20204;-66
2021/07/26 08:01:06;;;;;;;4.53;4.10;;;24.70;99.90;;;;;;5074788;28;20196;-66
2021/07/26 08:03:34;;;;;;;7.18;4.15;;;24.90;99.90;;;;;;5074576;28;20204;-66
2021/07/26 08:06:03;;;;;;;4.85;4.28;;;24.90;99.90;;;;;;5075353;28;20200;-66
2021/07/26 08:08:30;;;;;;;6.00;4.25;;;24.90;99.90;;;;;;5080143;28;20244;-66
2021/07/26 08:10:59;;;;;;;6.28;4.75;;;24.90;99.90;;;;;;5081577;28;20205;-66
2021/07/26 08:13:28;;;;;;;6.65;4.57;;;24.90;99.90;;;;;;5077332;28;20284;-67
2021/07/26 08:15:57;;;;;;;4.78;4.35;;;24.90;99.90;;;;;;5074157;28;20851;-65
2021/07/26 08:18:25;;;;;;;6.47;4.43;;;24.90;99.90;;;;;;5074531;28;20255;-66
2021/07/26 08:20:53;;;;;;;4.82;4.32;;;24.90;99.90;;;;;;5074497;28;20296;-66
2021/07/26 08:23:21;;;;;;;5.35;4.60;;;24.90;99.90;;;;;;5074507;28;20623;-66
2021/07/26 08:25:49;;;;;;;5.57;4.72;;;24.80;99.90;;;;;;5074137;28;20680;-65
2021/07/26 08:28:18;;;;;;;5.35;4.43;;;24.80;99.90;;;;;;5074109;28;20221;-65
2021/07/26 08:30:47;;;;;;;4.75;4.35;;;24.80;99.90;;;;;;5074204;28;20508;-66
2021/07/26 08:33:15;;;;;;;5.72;4.72;;;24.80;99.90;;;;;;5074154;28;20218;-65
2021/07/26 08:35:43;;;;;;;5.72;4.95;;;24.90;99.90;;;;;;5073923;28;20223;-66
2021/07/26 08:38:11;;;;;;;6.57;5.07;;;25.00;99.90;;;;;;5074132;28;20307;-65
2021/07/26 08:40:39;;;;;;;7.28;4.55;;;25.20;99.90;;;;;;5074036;28;20218;-66
2021/07/26 08:43:08;;;;;;;5.32;4.82;;;25.30;99.90;;;;;;5073236;28;20680;-66
2021/07/26 08:45:37;;;;;;;5.95;4.40;;;25.40;99.90;;;;;;5073995;28;20246;-66
2021/07/26 08:48:08;;;;;;;5.15;4.30;;;25.50;99.90;;;;;;5073561;28;20225;-65
2021/07/26 08:50:37;;;;;;;8.32;5.00;;;25.70;99.90;;;;;;5073718;28;20217;-65
2021/07/26 08:53:09;;;;;;;4.97;4.57;;;25.80;99.90;;;;;;5073661;28;20201;-66
2021/07/26 08:55:37;;;;;;;6.95;3.88;;;25.80;99.90;;;;;;5073461;28;20188;-65
2021/07/26 08:58:05;;;;;;;4.40;4.00;;;25.80;99.90;;;;;;5073265;28;20196;-66
2021/07/26 09:00:34;;;;;;;5.22;3.92;;;25.80;99.90;;;;;;5073479;28;20200;-66
2021/07/26 09:03:03;;;;;;;5.60;4.32;;;25.90;99.90;;;;;;5073377;28;20817;-68
2021/07/26 09:05:32;;;;;;;9.18;4.63;;;25.90;99.90;;;;;;5073291;28;20624;-66
2021/07/26 09:08:01;;;;;;;4.97;4.20;;;26.10;99.90;;;;;;5073319;28;20217;-67
2021/07/26 09:10:33;;;;;;;8.77;4.38;;;26.20;99.90;;;;;;5073248;28;20224;-66
2021/07/26 09:13:01;;;;;;;6.30;4.20;;;26.20;99.90;;;;;;5073287;28;20188;-66
2021/07/26 09:15:31;;;;;;;4.28;3.95;;;26.10;99.90;;;;;;5073029;28;20287;-66
2021/07/26 09:18:01;;;;;;;4.32;3.85;;;26.10;99.90;;;;;;5073370;28;20262;-66
2021/07/26 09:20:30;;;;;;;4.60;4.10;;;26.10;99.90;;;;;;5072815;28;20684;-66
2021/07/26 09:23:10;;;;;;;5.13;4.30;;;26.10;99.90;;;;;;5072948;28;20197;-65
2021/07/26 09:25:40;;;;;;;5.43;4.60;;;26.20;99.90;;;;;;5073267;28;20185;-65
2021/07/26 09:28:10;;;;;;;5.50;4.40;;;26.20;99.90;;;;;;5072878;28;20231;-66
2021/07/26 09:30:43;;;;;;;6.38;4.07;;;26.30;99.90;;;;;;5072906;28;20540;-66
2021/07/26 09:33:31;;;;;;;4.85;4.30;;;26.30;99.90;;;;;;5073345;28;20272;-66
2021/07/26 09:36:12;;;;;;;5.13;4.45;;;26.40;99.90;;;;;;5073052;28;20693;-66
2021/07/26 09:38:56;;;;;;;4.25;3.85;;;26.60;99.90;;;;;;5072884;28;20180;-66
2021/07/26 09:41:44;;;;;;;5.32;4.25;;;26.80;99.90;;;;;;5073950;28;20185;-65
2021/07/26 09:44:12;;;;;;;4.55;4.10;;;26.80;99.90;;;;;;5072855;28;20264;-66
2021/07/26 09:46:43;;;;;;;6.93;4.47;;;27.00;99.90;;;;;;5073459;28;20293;-66
2021/07/26 09:49:12;;;;;;;5.07;4.07;;;27.00;99.90;;;;;;5072664;28;20259;-66
2021/07/26 09:51:41;;;;;;;6.07;4.28;;;27.10;99.90;;;;;;5072570;28;20200;-67
2021/07/26 09:54:11;;;;;;;4.65;4.25;;;27.10;99.90;;;;;;5072877;28;20201;-65
2021/07/26 09:56:39;;;;;;;5.70;4.03;;;27.00;99.90;;;;;;5073097;28;20201;-65
2021/07/26 09:59:07;;;;;;;5.03;4.07;;;27.00;99.90;;;;;;5073359;28;20276;-66
2021/07/26 10:01:35;;;;;;;6.22;4.40;;;27.00;99.90;;;;;;5072631;28;20203;-65
2021/07/26 10:04:04;;;;;;;4.45;4.05;;;26.90;99.90;;;;;;5072453;28;20215;-66
2021/07/26 10:06:33;;;;;;;4.47;3.95;;;26.90;99.90;;;;;;5072499;28;20200;-66
2021/07/26 10:09:01;;;;;;;6.70;4.20;;;26.90;99.90;;;;;;5072423;28;20220;-66
2021/07/26 10:11:31;;;;;;;4.55;4.15;;;26.90;99.90;;;;;;5072467;28;20287;-65
2021/07/26 10:14:00;;;;;;;4.43;3.97;;;26.80;99.90;;;;;;5072144;28;20197;-66
2021/07/26 10:16:28;;;;;;;5.22;3.88;;;26.90;99.90;;;;;;5072143;28;20201;-67
2021/07/26 10:18:56;;;;;;;4.30;4.00;;;27.20;99.90;;;;;;5072317;28;20197;-66
2021/07/26 10:21:27;;;;;;;5.88;3.97;;;27.40;99.90;;;;;;5072377;28;20200;-65
2021/07/26 10:24:00;;;;;;;4.10;3.70;;;27.50;99.90;;;;;;5072348;28;20187;-67
2021/07/26 10:26:35;;;;;;;5.28;4.00;;;27.50;99.90;;;;;;5071110;28;20633;-66
2021/07/26 10:29:03;;;;;;;5.45;4.10;;;27.50;99.90;;;;;;5071871;28;20825;-65
2021/07/26 10:31:38;;;;;;;4.45;3.85;;;27.40;99.90;;;;;;5072034;28;20303;-66
2021/07/26 10:34:08;;;;;;;3.95;3.65;;;27.50;99.90;;;;;;5071872;28;20657;-67
2021/07/26 10:36:52;;;;;;;4.50;3.80;;;27.70;99.90;;;;;;5072136;28;20231;-67
2021/07/26 10:39:21;;;;;;;4.00;3.60;;;27.80;99.90;;;;;;5072163;28;20599;-66
2021/07/26 10:42:03;;;;;;;3.80;3.40;;;28.00;99.90;;;;;;5071980;28;20300;-66
2021/07/26 10:44:55;;;;;;;4.45;4.05;;;28.20;99.90;;;;;;5071660;28;20323;-68
2021/07/26 10:47:23;;;;;;;6.55;3.85;;;28.30;99.90;;;;;;5056943;28;20214;-66
2021/07/26 10:50:11;;;;;;;4.03;3.63;;;28.40;99.90;;;;;;5071512;28;20644;-66
2021/07/26 10:52:49;;;;;;;4.50;4.10;;;28.50;99.90;;;;;;5071787;28;20276;-66
2021/07/26 10:55:57;;;;;;;4.40;3.80;;;28.40;99.90;;;;;;5071613;28;20751;-66
2021/07/26 10:59:01;;;;;;;4.60;4.20;;;28.30;99.90;;;;;;5071595;28;20272;-66
2021/07/26 11:02:02;;;;;;;3.90;3.60;;;28.20;99.90;;;;;;5071649;28;20185;-65
2021/07/26 11:04:38;;;;;;;4.75;4.03;;;28.20;99.90;;;;;;5071597;28;20200;-66
2021/07/26 11:07:25;;;;;;;4.55;3.88;;;28.20;99.90;;;;;;5071947;28;20202;-65
2021/07/26 11:09:53;;;;;;;4.50;4.10;;;28.20;99.90;;;;;;5071488;28;20500;-65
2021/07/26 11:12:51;;;;;;;6.25;3.85;;;28.00;99.90;;;;;;5071768;28;20906;-66
2021/07/26 11:15:20;;;;;;;4.30;3.72;;;28.20;99.90;;;;;;5065936;28;20219;-66
2021/07/26 11:18:17;;;;;;;6.30;3.80;;;28.40;99.90;;;;;;5071553;28;20292;-65
2021/07/26 11:20:59;;;;;;;6.45;4.07;;;28.50;99.90;;;;;;5071609;28;20185;-66
2021/07/26 11:23:47;;;;;;;4.72;3.72;;;28.60;99.90;;;;;;5071835;28;20224;-65
2021/07/26 11:26:26;;;;;;;4.40;3.90;;;28.70;99.90;;;;;;5071399;28;20195;-66
2021/07/26 11:28:55;;;;;;;3.97;3.58;;;28.80;99.90;;;;;;5071253;28;20299;-65
2021/07/26 11:31:27;;;;;;;3.90;3.47;;;28.70;99.90;;;;;;5071329;28;20583;-66
2021/07/26 11:34:14;;;;;;;3.75;3.45;;;28.90;99.90;;;;;;5071434;28;20189;-66
2021/07/26 11:37:07;;;;;;;4.95;3.50;;;28.90;99.90;;;;;;5072064;28;20285;-65
2021/07/26 11:39:59;;;;;;;3.70;3.40;;;28.90;99.90;;;;;;5075056;28;20280;-66
2021/07/26 11:42:29;;;;;;;3.65;3.30;;;28.80;99.90;;;;;;5060168;28;20255;-65
2021/07/26 11:44:59;;;;;;;3.25;3.05;;;28.90;99.90;;;;;;5074562;28;20620;-66
2021/07/26 11:47:32;;;;;;;4.30;3.45;;;28.80;99.90;;;;;;5075042;28;20200;-66
2021/07/26 11:50:02;;;;;;;3.80;3.50;;;28.80;99.90;;;;;;5074478;28;20873;-65
2021/07/26 11:52:30;;;;;;;4.28;3.40;;;28.70;99.90;;;;;;5074950;28;20228;-66
2021/07/26 11:54:58;;;;;;;4.50;3.40;;;28.70;99.90;;;;;;5074944;28;20599;-65
2021/07/26 11:57:26;;;;;;;4.43;3.20;;;28.80;99.90;;;;;;5074895;28;20243;-65
2021/07/26 11:59:55;;;;;;;3.72;3.20;;;29.00;99.90;;;;;;5074717;28;20284;-67
2021/07/26 12:02:30;;;;;;;4.03;3.63;;;29.20;99.90;;;;;;5074836;28;20197;-66
2021/07/26 12:05:04;;;;;;;3.72;3.42;;;29.10;99.90;;;;;;5074643;28;20212;-66
2021/07/26 12:07:40;;;;;;;4.55;3.80;;;29.10;99.90;;;;;;5074623;28;20569;-66
2021/07/26 12:10:09;;;;;;;4.07;3.67;;;29.10;99.90;;;;;;5074228;28;20226;-65
2021/07/26 12:12:38;;;;;;;4.13;3.60;;;29.10;99.90;;;;;;5074619;28;20610;-65
2021/07/26 12:15:26;;;;;;;4.50;3.55;;;29.00;99.90;;;;;;5074152;28;20561;-65
2021/07/26 12:18:04;;;;;;;4.53;3.80;;;28.90;99.90;;;;;;5074170;28;20201;-66
2021/07/26 12:20:35;;;;;;;5.47;3.92;;;28.90;99.90;;;;;;5074627;28;20792;-66
2021/07/26 12:23:17;;;;;;;4.85;3.70;;;28.80;99.90;;;;;;5074406;28;20192;-67
2021/07/26 12:25:47;;;;;;;4.15;3.75;;;28.90;99.90;;;;;;5074366;28;20209;-66
2021/07/26 12:28:16;;;;;;;5.03;3.88;;;28.90;99.90;;;;;;5074134;28;20213;-66
2021/07/26 12:30:45;;;;;;;6.03;3.97;;;29.10;99.90;;;;;;5074222;28;20592;-65
2021/07/26 12:33:26;;;;;;;5.65;4.68;;;29.00;99.90;;;;;;5074248;28;20287;-66
2021/07/26 12:36:11;;;;;;;5.25;4.25;;;29.10;99.90;;;;;;5074059;28;20547;-67
2021/07/26 12:38:39;;;;;;;4.80;4.40;;;29.00;99.90;;;;;;5074185;28;20215;-65
2021/07/26 12:41:10;;;;;;;4.40;3.97;;;28.80;99.90;;;;;;5073674;28;20239;-66
2021/07/26 12:43:39;;;;;;;5.07;4.57;;;28.60;99.90;;;;;;5073494;28;20247;-66
2021/07/26 12:46:08;;;;;;;6.32;4.50;;;28.60;99.90;;;;;;5073837;28;20235;-65
2021/07/26 12:48:37;;;;;;;7.20;4.85;;;28.60;99.90;;;;;;5073024;28;20201;-66
2021/07/26 12:51:07;;;;;;;4.90;4.40;;;28.50;99.90;;;;;;5073435;28;20259;-66
2021/07/26 12:53:36;;;;;;;4.78;4.20;;;28.50;99.90;;;;;;5073694;28;20296;-65
2021/07/26 12:56:04;;;;;;;4.95;4.38;;;28.40;99.90;;;;;;5073706;28;20207;-65
2021/07/26 12:58:32;;;;;;;5.07;4.53;;;28.30;99.90;;;;;;5073574;28;20200;-66
2021/07/26 13:01:00;;;;;;;5.32;4.55;;;28.30;99.90;;;;;;5073481;28;20197;-66